Ansley, Nebraska
Current Conditions -  °F | °C
As of 6:53 PM on Sunday 23 Nov 2014 (Local Time) from KBBW Reporting Station
Clear Clear  
Wind Chill: 29°   Ceiling: Unl
Heat Index: 40°   Visibility: 10mi
Dew Point: 20°   Wind: 29mph
Humidity: 45%   Direction: 330°NNW
Pressure: 29.66"   Gusts: 44mph
Location:  41.29°N, 99.38°W
Report Text: KBBW 240053Z AUTO 33025G38KT 10SM CLR 04/M07 A2966 RMK AO2 PK WND 33038/0046 SLP053 T00441067 PWINO $
Loading
Personal Weather Stations






























Interactive Weather Map New forecast layout! Learn more

10-Day Weather Forecast

Advertisements
Track Severe Weather on mobile